Time;durP1;ratioP1;P1;durP2;ratioP2;P2;SDS_P1;SDS_P2;PMS_P1;PMS_P2;Temp;Humidity;BMP_temperature;BMP_pressure;BME280_temperature;BME280_humidity;BME280_pressure;Samples;Min_cycle;Max_cycle;Signal;HPM_P1;HPM_P2
2023/02/22 00:01:33;;;;;;;12.70;4.70;;;;;;;4.16;85.20;96563.13;108766;1274;22637;-80
2023/02/22 00:04:06;;;;;;;14.40;5.00;;;;;;;4.17;85.20;96566.54;108714;1273;22534;-80
2023/02/22 00:06:39;;;;;;;12.00;4.70;;;;;;;4.15;85.11;96565.20;108695;1273;22525;-80
2023/02/22 00:09:10;;;;;;;20.50;6.20;;;;;;;4.15;85.20;96568.19;108732;1274;22525;-80
2023/02/22 00:11:45;;;;;;;14.70;5.10;;;;;;;4.16;85.38;96566.31;108715;1274;23281;-80
2023/02/22 00:14:19;;;;;;;12.80;6.00;;;;;;;4.17;85.45;96570.16;108735;1272;23851;-80
2023/02/22 00:16:50;;;;;;;15.40;6.60;;;;;;;4.19;85.39;96571.13;108733;1272;22567;-80
2023/02/22 00:19:21;;;;;;;15.50;5.70;;;;;;;4.19;85.59;96570.02;108725;1274;24190;-80
2023/02/22 00:21:56;;;;;;;15.70;5.60;;;;;;;4.21;85.55;96566.70;108721;1271;22522;-80
2023/02/22 00:24:28;;;;;;;13.10;5.50;;;;;;;4.21;85.65;96563.02;108737;1273;22681;-80
2023/02/22 00:26:59;;;;;;;12.30;5.50;;;;;;;4.21;85.75;96562.17;108706;1273;24189;-80
2023/02/22 00:29:30;;;;;;;16.10;5.60;;;;;;;4.21;85.93;96562.77;108719;1270;22630;-80
2023/02/22 00:32:01;;;;;;;14.00;5.60;;;;;;;4.21;86.14;96565.91;108735;1273;22513;-80
2023/02/22 00:34:32;;;;;;;17.20;5.70;;;;;;;4.22;86.28;96570.73;108709;1274;22571;-80
2023/02/22 00:37:03;;;;;;;15.10;5.40;;;;;;;4.21;86.54;96571.89;108755;1273;22526;-80
2023/02/22 00:39:34;;;;;;;13.90;5.10;;;;;;;4.19;86.50;96578.80;108767;1273;23805;-80
2023/02/22 00:42:06;;;;;;;18.50;5.70;;;;;;;4.16;86.65;96577.44;108672;1274;22528;-80
2023/02/22 00:44:37;;;;;;;11.90;5.10;;;;;;;4.15;86.86;96578.89;108749;1274;24213;-80
2023/02/22 00:47:08;;;;;;;17.30;5.90;;;;;;;4.14;86.96;96578.66;108756;1274;23857;-80
2023/02/22 00:49:39;;;;;;;17.30;6.20;;;;;;;4.12;86.89;96577.07;108702;1267;22540;-80
2023/02/22 00:52:10;;;;;;;16.30;6.00;;;;;;;4.14;87.08;96577.92;108681;1274;22570;-80
2023/02/22 00:54:41;;;;;;;13.30;4.90;;;;;;;4.14;87.08;96580.70;108748;1274;22523;-80
2023/02/22 00:57:12;;;;;;;14.00;4.90;;;;;;;4.13;86.75;96579.43;108746;1274;22560;-80
2023/02/22 00:59:44;;;;;;;13.10;5.40;;;;;;;4.13;86.72;96580.23;108749;1266;24404;-80
2023/02/22 01:02:15;;;;;;;16.10;5.20;;;;;;;4.12;86.65;96584.83;108711;1274;36827;-80
2023/02/22 01:04:46;;;;;;;18.30;6.20;;;;;;;4.12;86.53;96590.34;108726;1274;23818;-80
2023/02/22 01:07:17;;;;;;;16.30;5.10;;;;;;;4.11;86.71;96588.33;108718;1274;22520;-80
2023/02/22 01:09:48;;;;;;;15.60;5.50;;;;;;;4.12;86.85;96591.02;108675;1270;22523;-80
2023/02/22 01:12:19;;;;;;;16.90;5.00;;;;;;;4.10;86.71;96595.77;108686;1267;22510;-80
2023/02/22 01:14:50;;;;;;;16.90;5.30;;;;;;;4.09;86.79;96599.63;108751;1273;26561;-80
2023/02/22 01:17:21;;;;;;;13.90;4.90;;;;;;;4.09;86.88;96599.75;108731;1274;22531;-80
2023/02/22 01:19:53;;;;;;;14.90;5.00;;;;;;;4.09;86.67;96596.13;108744;1274;22561;-80
2023/02/22 01:22:24;;;;;;;17.10;4.70;;;;;;;4.10;86.15;96592.04;108699;1273;26690;-80
2023/02/22 01:24:55;;;;;;;16.80;5.50;;;;;;;4.09;86.16;96584.00;108693;1274;22517;-80
2023/02/22 01:27:26;;;;;;;16.60;5.60;;;;;;;4.11;86.10;96587.45;108776;1273;22550;-80
2023/02/22 01:29:57;;;;;;;11.40;4.60;;;;;;;4.10;86.03;96585.44;108719;1274;25428;-80
2023/02/22 01:32:29;;;;;;;13.70;4.50;;;;;;;4.08;85.77;96582.41;108689;1271;22518;-80
2023/02/22 01:35:03;;;;;;;18.70;5.30;;;;;;;4.08;85.85;96584.67;108748;1273;25193;-80
2023/02/22 01:37:34;;;;;;;14.90;5.40;;;;;;;4.07;85.80;96589.41;108737;1273;22614;-80
2023/02/22 01:40:09;;;;;;;17.30;5.50;;;;;;;4.08;85.99;96587.95;108700;1267;22528;-80
2023/02/22 01:42:40;;;;;;;16.40;5.40;;;;;;;4.10;85.98;96588.32;108732;1273;22549;-80
2023/02/22 01:45:40;;;;;;;15.60;4.60;;;;;;;4.09;85.86;96589.57;108789;1273;24216;-79
2023/02/22 01:48:16;;;;;;;15.70;6.30;;;;;;;4.08;85.78;96588.95;108714;1268;22546;-80
2023/02/22 01:50:53;;;;;;;17.40;5.50;;;;;;;4.07;86.01;96589.82;108816;1270;25398;-79
2023/02/22 01:53:29;;;;;;;11.40;4.80;;;;;;;4.06;86.07;96588.34;108697;1267;22608;-80
2023/02/22 01:56:00;;;;;;;17.70;5.40;;;;;;;4.05;86.37;96589.31;108739;1273;22545;-79
2023/02/22 01:58:35;;;;;;;13.80;5.30;;;;;;;4.00;86.63;96591.51;108729;1273;23881;-80
2023/02/22 02:01:07;;;;;;;13.50;5.40;;;;;;;4.00;86.85;96592.71;108728;1273;29647;-80
2023/02/22 02:03:40;;;;;;;16.70;5.20;;;;;;;4.01;86.96;96586.89;108713;1264;24989;-79
2023/02/22 02:06:16;;;;;;;17.00;5.30;;;;;;;4.02;87.01;96584.61;108746;1274;25249;-80
2023/02/22 02:08:55;;;;;;;14.10;5.20;;;;;;;4.03;86.98;96585.09;108792;1267;22522;-80
2023/02/22 02:11:27;;;;;;;16.70;5.70;;;;;;;4.04;87.03;96588.67;108724;1267;25320;-80
2023/02/22 02:13:59;;;;;;;17.00;6.20;;;;;;;4.05;87.11;96588.41;108732;1273;25021;-80
2023/02/22 02:16:38;;;;;;;23.10;5.80;;;;;;;4.03;86.96;96583.66;108736;1268;22547;-80
2023/02/22 02:19:15;;;;;;;15.80;6.20;;;;;;;4.02;86.92;96582.91;108767;1256;22528;-80
2023/02/22 02:22:12;;;;;;;15.60;6.20;;;;;;;4.01;86.96;96581.76;108710;1273;23822;-80
2023/02/22 02:25:06;;;;;;;17.80;5.70;;;;;;;4.02;86.96;96581.09;108727;1274;25595;-80
2023/02/22 02:27:53;;;;;;;16.50;5.10;;;;;;;4.03;86.88;96578.20;108602;1270;25269;-80
2023/02/22 02:31:02;;;;;;;17.20;5.30;;;;;;;4.02;86.79;96579.15;108717;1273;23862;-79
2023/02/22 02:33:39;;;;;;;17.70;5.60;;;;;;;4.01;86.86;96580.23;108693;1270;22550;-80
2023/02/22 02:36:18;;;;;;;16.90;5.40;;;;;;;4.01;86.70;96584.17;108761;1273;24845;-80
2023/02/22 02:38:55;;;;;;;17.40;5.70;;;;;;;4.04;86.66;96583.48;108660;1267;22537;-79
2023/02/22 02:41:31;;;;;;;14.20;4.60;;;;;;;4.06;86.62;96580.67;108720;1271;45655;-79
2023/02/22 02:44:05;;;;;;;16.70;4.90;;;;;;;4.05;86.38;96580.04;108748;1273;22564;-79
2023/02/22 02:46:42;;;;;;;16.40;5.30;;;;;;;4.04;86.12;96581.17;108705;1267;24212;-80
2023/02/22 02:49:18;;;;;;;11.50;4.90;;;;;;;4.03;86.17;96580.79;108735;1273;22548;-80
2023/02/22 02:51:52;;;;;;;17.80;5.50;;;;;;;4.03;86.30;96581.79;108700;1256;42250;-79
2023/02/22 02:54:24;;;;;;;14.70;5.00;;;;;;;4.04;86.47;96584.00;108743;1273;22527;-79
2023/02/22 02:56:57;;;;;;;15.10;5.70;;;;;;;4.02;86.35;96582.83;108768;1268;22623;-79
2023/02/22 02:59:31;;;;;;;17.50;5.50;;;;;;;4.01;86.48;96583.70;108708;1273;22601;-79
2023/02/22 03:02:28;;;;;;;16.10;5.70;;;;;;;4.02;86.52;96586.02;108815;1274;23176;-80
2023/02/22 03:05:11;;;;;;;13.00;5.30;;;;;;;4.04;86.63;96587.67;108729;1274;22550;-80
2023/02/22 03:07:51;;;;;;;18.90;5.20;;;;;;;4.02;86.62;96583.77;108575;1273;146378;-80
2023/02/22 03:10:37;;;;;;;13.90;5.20;;;;;;;3.98;86.57;96588.05;108737;1273;23108;-80
2023/02/22 03:13:16;;;;;;;17.00;5.70;;;;;;;3.96;86.77;96591.33;108722;1274;22518;-80
2023/02/22 03:15:55;;;;;;;11.90;4.50;;;;;;;3.97;86.89;96586.31;108740;1274;22542;-80
2023/02/22 03:18:35;;;;;;;13.40;5.20;;;;;;;3.93;86.86;96586.23;108776;1270;22525;-80
2023/02/22 03:21:19;;;;;;;13.50;5.60;;;;;;;3.83;87.40;96588.95;108736;1267;23327;-80
2023/02/22 03:23:59;;;;;;;18.20;6.10;;;;;;;3.73;87.65;96589.34;108759;1274;22532;-80
2023/02/22 03:26:39;;;;;;;14.10;5.50;;;;;;;3.68;87.73;96591.95;108741;1267;22546;-80
2023/02/22 03:29:15;;;;;;;13.80;5.40;;;;;;;3.70;87.91;96595.64;108759;1273;22929;-80
2023/02/22 03:31:51;;;;;;;17.70;5.50;;;;;;;3.72;87.77;96599.56;108736;1273;22532;-81
2023/02/22 03:34:26;;;;;;;19.80;5.10;;;;;;;3.74;87.62;96599.11;108730;1273;24398;-80
2023/02/22 03:37:00;;;;;;;16.20;5.60;;;;;;;3.78;87.70;96602.16;108750;1273;22531;-80
2023/02/22 03:39:35;;;;;;;14.40;5.40;;;;;;;3.79;87.68;96605.01;108730;1268;22537;-81
2023/02/22 03:42:14;;;;;;;16.30;5.70;;;;;;;3.80;87.78;96608.29;108746;1267;22564;-80
2023/02/22 03:44:48;;;;;;;17.50;5.80;;;;;;;3.79;87.91;96611.20;108753;1273;22534;-80
2023/02/22 03:47:27;;;;;;;14.40;6.50;;;;;;;3.78;88.07;96612.23;108726;1260;24180;-80
2023/02/22 03:50:05;;;;;;;14.80;5.60;;;;;;;3.76;88.04;96613.09;108717;1274;22528;-80
2023/02/22 03:52:37;;;;;;;18.70;5.30;;;;;;;3.75;88.23;96609.05;108751;1273;27249;-80
2023/02/22 03:55:11;;;;;;;13.60;5.60;;;;;;;3.77;88.40;96605.82;108736;1267;22555;-80
2023/02/22 03:57:45;;;;;;;15.40;5.30;;;;;;;3.73;88.19;96606.07;108784;1273;22530;-80
2023/02/22 04:00:21;;;;;;;15.00;5.60;;;;;;;3.67;88.40;96612.41;108725;1273;23877;-80
2023/02/22 04:02:52;;;;;;;16.50;6.00;;;;;;;3.64;88.33;96612.23;108759;1273;22962;-81
2023/02/22 04:09:07;;;;;;;12.60;5.00;;;;;;;3.69;88.43;96614.96;108738;1273;22521;-80
2023/02/22 04:11:39;;;;;;;16.30;5.40;;;;;;;3.70;88.37;96617.98;108676;1272;53930;-80
2023/02/22 04:14:10;;;;;;;17.30;4.90;;;;;;;3.73;88.40;96620.17;108704;1273;25333;-81
2023/02/22 04:16:41;;;;;;;15.80;5.50;;;;;;;3.76;88.43;96618.42;108734;1273;23140;-80
2023/02/22 04:19:12;;;;;;;15.20;5.20;;;;;;;3.76;88.32;96616.45;108742;1273;22546;-80
2023/02/22 04:21:43;;;;;;;14.60;5.70;;;;;;;3.75;88.27;96616.80;108730;1251;22531;-80
2023/02/22 04:24:15;;;;;;;17.40;5.60;;;;;;;3.71;88.34;96613.33;108781;1273;25085;-80
2023/02/22 04:26:46;;;;;;;13.20;5.60;;;;;;;3.70;88.34;96614.98;108739;1261;22527;-80
2023/02/22 04:29:17;;;;;;;17.00;5.40;;;;;;;3.68;88.41;96614.69;108787;1253;22695;-81
2023/02/22 04:31:48;;;;;;;14.20;5.80;;;;;;;3.69;88.53;96616.86;108742;1273;22543;-80
2023/02/22 04:34:19;;;;;;;16.30;6.10;;;;;;;3.68;88.46;96611.19;108757;1273;22518;-80
2023/02/22 04:36:49;;;;;;;18.50;6.20;;;;;;;3.68;88.66;96609.86;108697;1273;22520;-80
2023/02/22 04:39:21;;;;;;;17.20;6.10;;;;;;;3.67;88.72;96611.78;108719;1273;24206;-80
2023/02/22 04:41:52;;;;;;;15.60;5.20;;;;;;;3.67;88.76;96611.36;108702;1273;24264;-80
2023/02/22 04:44:23;;;;;;;14.40;5.70;;;;;;;3.67;88.87;96613.95;108776;1273;22727;-80
2023/02/22 04:46:55;;;;;;;14.50;5.60;;;;;;;3.65;89.01;96612.71;108725;1267;22595;-80
2023/02/22 04:49:26;;;;;;;21.50;5.80;;;;;;;3.63;88.91;96614.79;108746;1267;22537;-80
2023/02/22 04:51:57;;;;;;;14.50;5.70;;;;;;;3.61;88.95;96607.62;108696;1257;22528;-80
2023/02/22 04:54:28;;;;;;;15.00;5.90;;;;;;;3.58;88.92;96615.02;108749;1273;22860;-80
2023/02/22 04:56:59;;;;;;;12.60;5.10;;;;;;;3.56;89.04;96612.95;108745;1273;22536;-80
2023/02/22 04:59:31;;;;;;;18.20;6.40;;;;;;;3.53;89.12;96614.08;108769;1273;22523;-81
2023/02/22 05:02:03;;;;;;;17.20;6.40;;;;;;;3.51;89.20;96613.98;108722;1273;22557;-80
2023/02/22 05:04:34;;;;;;;14.00;5.80;;;;;;;3.49;89.25;96618.52;108723;1274;22577;-80
2023/02/22 05:07:06;;;;;;;14.80;5.80;;;;;;;3.50;89.35;96621.41;108727;1273;22530;-80
2023/02/22 05:09:37;;;;;;;16.90;6.10;;;;;;;3.52;89.36;96617.79;108797;1273;22548;-80
2023/02/22 05:12:08;;;;;;;13.40;6.10;;;;;;;3.56;89.45;96619.86;108746;1274;22583;-80
2023/02/22 05:14:40;;;;;;;17.00;6.10;;;;;;;3.61;89.57;96620.73;108758;1268;22729;-80
2023/02/22 05:17:11;;;;;;;13.30;5.80;;;;;;;3.62;89.49;96622.68;108762;1273;22707;-80
2023/02/22 05:19:42;;;;;;;16.80;6.50;;;;;;;3.63;89.44;96618.98;108744;1267;22530;-80
2023/02/22 05:22:14;;;;;;;14.60;6.20;;;;;;;3.65;89.49;96618.70;108736;1269;22532;-81
2023/02/22 05:24:45;;;;;;;14.80;5.40;;;;;;;3.65;89.40;96621.10;108751;1270;25294;-80
2023/02/22 05:27:16;;;;;;;13.30;5.90;;;;;;;3.64;89.44;96625.08;108736;1269;22560;-81
2023/02/22 05:29:48;;;;;;;14.80;5.70;;;;;;;3.66;89.43;96626.64;108759;1273;24218;-81
2023/02/22 05:32:19;;;;;;;19.40;6.40;;;;;;;3.61;89.49;96626.77;108708;1270;23845;-80
2023/02/22 05:34:50;;;;;;;17.50;6.20;;;;;;;3.57;89.54;96625.13;108723;1267;22637;-80
2023/02/22 05:37:21;;;;;;;14.50;5.20;;;;;;;3.54;89.60;96622.88;108742;1273;22577;-80
2023/02/22 05:39:52;;;;;;;15.40;5.80;;;;;;;3.54;89.77;96625.86;108756;1273;22538;-80
2023/02/22 05:42:23;;;;;;;19.20;6.30;;;;;;;3.53;89.73;96626.26;108712;1270;24215;-81
2023/02/22 05:44:54;;;;;;;13.60;5.70;;;;;;;3.48;89.79;96629.92;108811;1270;25345;-80
2023/02/22 05:47:25;;;;;;;14.20;6.00;;;;;;;3.46;89.99;96633.71;108757;1273;22524;-80
2023/02/22 05:49:56;;;;;;;15.40;5.70;;;;;;;3.47;90.10;96632.48;108726;1267;22543;-80
2023/02/22 05:52:27;;;;;;;16.40;5.80;;;;;;;3.49;90.16;96639.38;108714;1273;25134;-80
2023/02/22 05:54:58;;;;;;;16.80;6.50;;;;;;;3.51;90.19;96635.27;108740;1273;22587;-81
2023/02/22 05:57:29;;;;;;;18.90;7.00;;;;;;;3.51;90.10;96640.31;108760;1273;26889;-80
2023/02/22 06:00:01;;;;;;;19.00;7.90;;;;;;;3.56;90.24;96646.96;108773;1273;23747;-80
2023/02/22 06:02:32;;;;;;;14.30;6.60;;;;;;;3.58;90.37;96642.70;108719;1273;22531;-81
2023/02/22 06:05:03;;;;;;;25.40;9.80;;;;;;;3.54;90.37;96642.73;108735;1273;23193;-80
2023/02/22 06:07:34;;;;;;;30.40;12.50;;;;;;;3.48;90.35;96648.10;108722;1267;25005;-81
2023/02/22 06:10:07;;;;;;;24.20;8.50;;;;;;;3.44;90.49;96644.63;108733;1273;22528;-80
2023/02/22 06:12:38;;;;;;;18.30;7.40;;;;;;;3.45;90.81;96651.40;108754;1273;22551;-80
2023/02/22 06:15:09;;;;;;;23.20;7.40;;;;;;;3.44;90.80;96657.48;108729;1273;22565;-80
2023/02/22 06:17:40;;;;;;;18.20;7.70;;;;;;;3.45;90.72;96657.94;108742;1273;22538;-80
2023/02/22 06:20:14;;;;;;;20.60;7.10;;;;;;;3.50;90.72;96659.57;108750;1273;22539;-80
2023/02/22 06:22:46;;;;;;;19.80;8.60;;;;;;;3.55;90.61;96663.72;108771;1273;23305;-80
2023/02/22 06:25:19;;;;;;;21.60;8.10;;;;;;;3.59;90.60;96667.00;108768;1273;22521;-80
2023/02/22 06:27:50;;;;;;;16.80;7.10;;;;;;;3.65;90.62;96669.97;108760;1273;22531;-79
2023/02/22 06:30:23;;;;;;;16.30;6.40;;;;;;;3.70;90.51;96670.51;108759;1273;22550;-80
2023/02/22 06:32:54;;;;;;;17.00;7.00;;;;;;;3.71;90.32;96671.95;108755;1266;22929;-80
2023/02/22 06:35:25;;;;;;;15.60;6.00;;;;;;;3.74;90.54;96676.14;108735;1273;26417;-80
2023/02/22 06:37:56;;;;;;;17.10;5.80;;;;;;;3.78;90.34;96678.83;108736;1267;22535;-79
2023/02/22 06:40:28;;;;;;;14.80;6.50;;;;;;;3.78;90.16;96687.07;108726;1262;23035;-79
2023/02/22 06:43:00;;;;;;;24.00;7.50;;;;;;;3.78;89.93;96686.76;108764;1273;22527;-80
2023/02/22 06:45:31;;;;;;;51.60;18.10;;;;;;;3.76;89.81;96688.08;108743;1270;22539;-80
2023/02/22 06:48:02;;;;;;;57.70;22.00;;;;;;;3.72;89.71;96692.62;108780;1273;22567;-80
2023/02/22 06:50:33;;;;;;;25.30;10.20;;;;;;;3.67;89.96;96692.23;108720;1273;22540;-79
2023/02/22 06:53:04;;;;;;;19.30;6.70;;;;;;;3.69;90.09;96694.61;108740;1273;22527;-79
2023/02/22 06:55:36;;;;;;;18.60;6.20;;;;;;;3.74;90.29;96697.33;108725;1266;24009;-79
2023/02/22 06:58:07;;;;;;;18.20;6.20;;;;;;;3.78;90.29;96696.30;108740;1273;22523;-79
2023/02/22 07:00:38;;;;;;;17.00;6.20;;;;;;;3.84;90.29;96697.53;108696;1267;22783;-79
2023/02/22 07:03:10;;;;;;;18.70;6.80;;;;;;;3.91;90.43;96697.96;108759;1273;22534;-79
2023/02/22 07:05:42;;;;;;;16.50;6.20;;;;;;;3.91;90.23;96697.29;108759;1260;22590;-80
2023/02/22 07:08:13;;;;;;;21.60;7.10;;;;;;;3.93;90.14;96697.06;108716;1273;25416;-80
2023/02/22 07:10:44;;;;;;;15.70;6.20;;;;;;;3.95;89.81;96698.85;108719;1266;22809;-79
2023/02/22 07:13:15;;;;;;;23.00;6.80;;;;;;;3.95;89.20;96700.99;108747;1273;23672;-80
2023/02/22 07:15:46;;;;;;;24.10;8.20;;;;;;;3.94;89.17;96703.87;108708;1273;22705;-79
2023/02/22 07:18:18;;;;;;;22.30;9.30;;;;;;;3.95;89.30;96704.18;108733;1267;25409;-79
2023/02/22 07:20:49;;;;;;;20.80;9.00;;;;;;;3.96;89.52;96705.53;108730;1273;42952;-79
2023/02/22 07:23:21;;;;;;;20.50;7.90;;;;;;;4.00;89.62;96706.23;108691;1273;22546;-79
2023/02/22 07:25:53;;;;;;;19.30;7.10;;;;;;;4.07;89.55;96707.94;108784;1273;26440;-80
2023/02/22 07:28:24;;;;;;;22.80;7.70;;;;;;;4.15;89.31;96705.08;108796;1270;23228;-80
2023/02/22 07:30:55;;;;;;;20.10;8.00;;;;;;;4.23;89.49;96704.44;108754;1273;25310;-80
2023/02/22 07:33:25;;;;;;;19.70;7.30;;;;;;;4.29;89.39;96703.13;108766;1273;22566;-80
2023/02/22 07:35:57;;;;;;;24.60;7.00;;;;;;;4.31;89.10;96703.11;108739;1273;22520;-79
2023/02/22 07:38:28;;;;;;;20.90;7.10;;;;;;;4.29;88.50;96704.60;108738;1273;22524;-79
2023/02/22 07:41:00;;;;;;;19.90;7.00;;;;;;;4.32;88.64;96705.39;108777;1273;25307;-79
2023/02/22 07:43:31;;;;;;;18.10;6.50;;;;;;;4.37;88.55;96706.33;108741;1273;22611;-79
2023/02/22 07:46:03;;;;;;;19.90;7.30;;;;;;;4.39;88.31;96706.98;108783;1273;22554;-79
2023/02/22 07:48:34;;;;;;;28.70;10.20;;;;;;;4.42;88.37;96708.73;108735;1273;22530;-79
2023/02/22 07:51:06;;;;;;;25.10;9.50;;;;;;;4.46;88.37;96712.66;108764;1273;22647;-79
2023/02/22 07:53:37;;;;;;;23.00;8.20;;;;;;;4.51;88.23;96712.00;108706;1273;23809;-79
2023/02/22 07:56:09;;;;;;;19.00;6.90;;;;;;;4.54;88.12;96712.02;108771;1267;22542;-79
2023/02/22 07:58:40;;;;;;;19.10;6.50;;;;;;;4.57;88.04;96714.86;108806;1273;22545;-79
2023/02/22 08:01:11;;;;;;;18.90;6.80;;;;;;;4.58;87.58;96709.73;108713;1270;28484;-80
2023/02/22 08:03:42;;;;;;;22.10;7.40;;;;;;;4.60;87.45;96710.16;108735;1273;24214;-80
2023/02/22 08:06:13;;;;;;;18.70;6.60;;;;;;;4.65;87.62;96710.47;108760;1273;22526;-80
2023/02/22 08:08:44;;;;;;;20.80;7.00;;;;;;;4.68;87.52;96711.77;108753;1273;22608;-79
2023/02/22 08:11:15;;;;;;;20.80;7.10;;;;;;;4.69;87.42;96711.17;108734;1273;56179;-80
2023/02/22 08:13:46;;;;;;;20.70;7.10;;;;;;;4.73;87.18;96705.88;108734;1273;25420;-80
2023/02/22 08:16:17;;;;;;;19.80;6.60;;;;;;;4.74;87.06;96704.94;108729;1273;22524;-79
2023/02/22 08:18:48;;;;;;;16.10;6.40;;;;;;;4.77;86.59;96705.73;108786;1273;22527;-80
2023/02/22 08:21:19;;;;;;;18.10;7.20;;;;;;;4.80;86.47;96708.20;108737;1273;22527;-79
2023/02/22 08:23:54;;;;;;;18.90;6.50;;;;;;;4.80;86.45;96705.42;108708;1266;23951;-79
2023/02/22 08:26:25;;;;;;;26.80;7.20;;;;;;;4.83;86.34;96706.89;108736;1270;22729;-80
2023/02/22 08:28:56;;;;;;;19.20;7.00;;;;;;;4.89;86.12;96705.64;108798;1266;24024;-79
2023/02/22 08:31:27;;;;;;;21.10;7.40;;;;;;;4.94;86.02;96706.05;108740;1273;24332;-79
2023/02/22 08:33:59;;;;;;;17.10;5.50;;;;;;;5.00;85.69;96707.13;108730;1269;22610;-80
2023/02/22 08:36:31;;;;;;;11.90;5.90;;;;;;;5.03;85.11;96708.33;108779;1273;25282;-79
2023/02/22 08:39:02;;;;;;;16.70;7.20;;;;;;;5.08;84.51;96712.35;108722;1273;22539;-79
2023/02/22 08:41:33;;;;;;;16.20;6.00;;;;;;;5.00;83.81;96711.71;108729;1266;26363;-79
2023/02/22 08:44:04;;;;;;;14.40;6.10;;;;;;;5.03;84.19;96713.17;108770;1274;22548;-79
2023/02/22 08:46:36;;;;;;;21.00;6.80;;;;;;;5.16;84.52;96713.51;108763;1269;25419;-79
2023/02/22 08:49:07;;;;;;;19.40;7.00;;;;;;;5.24;83.88;96711.81;108745;1273;22519;-80
2023/02/22 08:51:38;;;;;;;14.60;5.80;;;;;;;5.19;83.01;96713.62;108707;1273;25251;-80
2023/02/22 08:54:09;;;;;;;17.50;5.90;;;;;;;5.08;82.82;96712.88;108751;1273;22578;-79
2023/02/22 08:56:40;;;;;;;19.60;7.30;;;;;;;5.05;83.05;96716.56;108726;1273;22779;-79
2023/02/22 08:59:11;;;;;;;17.70;6.90;;;;;;;5.09;83.24;96717.31;108757;1268;22517;-79
2023/02/22 09:01:42;;;;;;;14.10;5.50;;;;;;;5.13;83.28;96716.58;108694;1273;36769;-79
2023/02/22 09:04:13;;;;;;;20.20;6.40;;;;;;;5.17;83.45;96713.73;108703;1273;22566;-80
2023/02/22 09:06:47;;;;;;;16.10;5.80;;;;;;;5.18;83.22;96719.06;108701;1268;22523;-80
2023/02/22 09:09:20;;;;;;;15.90;5.60;;;;;;;5.19;82.93;96718.39;108769;1251;24047;-80
2023/02/22 09:11:51;;;;;;;13.50;5.30;;;;;;;5.23;82.83;96718.88;108812;1270;23293;-80
2023/02/22 09:14:22;;;;;;;16.90;5.00;;;;;;;5.27;82.31;96718.89;108733;1273;22542;-80
2023/02/22 09:16:53;;;;;;;12.70;5.80;;;;;;;5.27;81.69;96720.35;108724;1273;22641;-80
2023/02/22 09:19:24;;;;;;;14.70;5.60;;;;;;;5.24;81.20;96722.42;108757;1273;25301;-80
2023/02/22 09:21:58;;;;;;;14.60;4.70;;;;;;;5.24;80.78;96725.00;108721;1269;22517;-80
2023/02/22 09:24:30;;;;;;;15.90;4.70;;;;;;;5.21;80.57;96724.15;108786;1273;22518;-80
2023/02/22 09:27:03;;;;;;;16.50;5.30;;;;;;;5.22;80.36;96726.23;108738;1273;22580;-80
2023/02/22 09:29:34;;;;;;;14.90;5.20;;;;;;;5.27;80.03;96725.98;108743;1271;22601;-80
2023/02/22 09:32:05;;;;;;;15.60;4.90;;;;;;;5.40;80.69;96722.36;108749;1269;25517;-80
2023/02/22 09:34:37;;;;;;;15.20;5.40;;;;;;;5.57;80.94;96724.76;108739;1273;23350;-80
2023/02/22 09:37:09;;;;;;;14.50;5.20;;;;;;;5.66;80.33;96724.05;108737;1273;22517;-80
2023/02/22 09:39:40;;;;;;;14.80;5.10;;;;;;;5.77;80.47;96723.80;108752;1266;22676;-80
2023/02/22 09:42:16;;;;;;;13.00;4.50;;;;;;;5.86;79.75;96715.92;108770;1270;22750;-80
2023/02/22 09:44:52;;;;;;;15.20;4.80;;;;;;;6.02;79.80;96715.34;108765;1269;22633;-80
2023/02/22 09:47:34;;;;;;;15.80;4.60;;;;;;;6.38;79.77;96710.83;108799;1273;22515;-80
2023/02/22 09:50:14;;;;;;;14.30;4.40;;;;;;;6.68;79.14;96712.20;108790;1269;22536;-80
2023/02/22 09:52:56;;;;;;;12.80;4.50;;;;;;;6.80;78.48;96709.69;108758;1273;23003;-80
2023/02/22 09:55:34;;;;;;;11.10;4.10;;;;;;;6.85;77.44;96712.24;108828;1273;22595;-80
2023/02/22 09:58:15;;;;;;;13.30;4.50;;;;;;;6.85;77.03;96709.92;108809;1273;22527;-79
2023/02/22 10:00:52;;;;;;;13.80;3.90;;;;;;;6.87;76.66;96709.98;108724;1266;22514;-80
2023/02/22 10:03:29;;;;;;;13.10;4.80;;;;;;;6.74;75.08;96709.05;108767;1251;23115;-79
2023/02/22 10:06:04;;;;;;;15.20;4.70;;;;;;;6.78;75.63;96706.40;108733;1273;27926;-80
2023/02/22 10:08:37;;;;;;;10.80;4.20;;;;;;;7.09;76.02;96705.75;108727;1273;24188;-80
2023/02/22 10:11:20;;;;;;;13.60;5.00;;;;;;;7.36;75.26;96698.73;108743;1267;22660;-80
2023/02/22 10:14:05;;;;;;;13.10;4.00;;;;;;;7.57;74.86;96700.06;108763;1273;23303;-80
2023/02/22 10:16:46;;;;;;;14.80;4.90;;;;;;;7.65;73.93;96705.07;108752;1273;22517;-80
2023/02/22 10:19:27;;;;;;;10.60;3.80;;;;;;;7.60;72.72;96702.73;108727;1273;22533;-80
2023/02/22 10:22:21;;;;;;;9.70;3.40;;;;;;;7.56;72.75;96705.02;108736;1270;22542;-80
2023/02/22 10:24:59;;;;;;;12.60;4.30;;;;;;;7.50;71.57;96703.45;108759;1273;22551;-80
2023/02/22 10:27:35;;;;;;;8.30;3.30;;;;;;;7.35;70.81;96701.11;108784;1273;26872;-80
2023/02/22 10:30:17;;;;;;;8.70;4.20;;;;;;;7.37;71.66;96698.05;108760;1274;22522;-80
2023/02/22 10:32:52;;;;;;;14.00;4.50;;;;;;;7.52;71.65;96694.55;108780;1269;27373;-80
2023/02/22 10:35:26;;;;;;;15.10;4.90;;;;;;;7.37;69.77;96688.14;108774;1256;22527;-80
2023/02/22 10:38:04;;;;;;;13.40;4.90;;;;;;;6.93;68.75;96688.91;108708;1251;22523;-80
2023/02/22 10:40:35;;;;;;;13.80;5.10;;;;;;;6.64;68.48;96687.83;108716;1273;26434;-80
2023/02/22 10:43:09;;;;;;;12.80;4.40;;;;;;;6.58;69.32;96684.09;108712;1273;26459;-80
2023/02/22 10:45:42;;;;;;;15.90;4.80;;;;;;;6.64;69.61;96685.85;108737;1267;23811;-80
2023/02/22 10:48:18;;;;;;;12.50;4.70;;;;;;;6.72;69.62;96688.95;108746;1250;22544;-80
2023/02/22 10:50:52;;;;;;;13.50;4.70;;;;;;;6.86;70.37;96686.55;108691;1273;43775;-80
2023/02/22 10:53:23;;;;;;;13.60;4.80;;;;;;;7.06;70.52;96680.73;108757;1273;22529;-80
2023/02/22 10:56:16;;;;;;;16.50;5.10;;;;;;;7.20;69.86;96683.36;108760;1270;26619;-79
2023/02/22 10:58:53;;;;;;;14.10;5.30;;;;;;;7.08;68.40;96679.52;108754;1262;22605;-79
2023/02/22 11:01:28;;;;;;;13.00;4.80;;;;;;;6.88;68.21;96680.77;108719;1273;22516;-80
2023/02/22 11:04:02;;;;;;;13.30;4.70;;;;;;;6.74;68.51;96683.80;108739;1273;22517;-80
2023/02/22 11:06:35;;;;;;;15.60;4.70;;;;;;;6.81;69.35;96684.50;108725;1273;22517;-79
2023/02/22 11:09:16;;;;;;;17.70;4.70;;;;;;;6.92;68.98;96684.10;108750;1273;23808;-80
2023/02/22 11:11:50;;;;;;;15.00;5.70;;;;;;;6.70;67.46;96684.25;108720;1273;24023;-79
2023/02/22 11:14:30;;;;;;;12.10;5.20;;;;;;;6.44;68.08;96679.60;108781;1273;22563;-79
2023/02/22 11:17:00;;;;;;;;;;;;;;;6.34;68.98;96674.24;108758;1269;25405;-79
2023/02/22 11:19:31;;;;;;;;;;;;;;;6.40;69.29;96675.03;108772;1273;22509;-79
2023/02/22 11:22:14;;;;;;;10.00;4.70;;;;;;;6.52;69.15;96676.56;108705;1273;24106;-79
2023/02/22 11:24:50;;;;;;;14.10;4.30;;;;;;;6.70;69.29;96673.66;108793;1269;25419;-79
2023/02/22 11:27:30;;;;;;;12.80;4.30;;;;;;;6.91;69.90;96670.23;108742;1273;23977;-79
2023/02/22 11:30:08;;;;;;;;;;;;;;;7.28;70.07;96668.95;108772;1274;22614;-79
2023/02/22 11:32:47;;;;;;;16.90;5.30;;;;;;;7.66;69.49;96667.45;108708;1273;33296;-79
2023/02/22 11:35:38;;;;;;;12.50;5.30;;;;;;;7.92;69.10;96664.11;108800;1273;26642;-79
2023/02/22 11:38:19;;;;;;;15.90;4.80;;;;;;;7.93;68.13;96665.11;108744;1273;22543;-79
2023/02/22 11:41:08;;;;;;;12.60;4.70;;;;;;;7.92;67.84;96664.22;108753;1273;23364;-79
2023/02/22 11:43:39;;;;;;;10.40;4.30;;;;;;;7.87;66.84;96666.77;108778;1274;22647;-80
2023/02/22 11:46:16;;;;;;;11.60;4.80;;;;;;;7.90;67.24;96664.15;108754;1273;24320;-79
2023/02/22 11:48:58;;;;;;;14.20;5.40;;;;;;;7.97;66.97;96668.82;108716;1273;26456;-79
2023/02/22 11:51:45;;;;;;;12.60;4.90;;;;;;;7.94;66.58;96671.98;108670;1273;22677;-79
2023/02/22 11:54:27;;;;;;;13.80;5.80;;;;;;;7.74;65.50;96669.95;108795;1270;22537;-79
2023/02/22 11:57:15;;;;;;;13.60;5.60;;;;;;;7.49;65.79;96672.90;108768;1269;26471;-79
2023/02/22 12:00:00;;;;;;;12.60;5.60;;;;;;;7.24;65.48;96672.13;108741;1273;25340;-79
2023/02/22 12:02:50;;;;;;;13.80;5.60;;;;;;;6.97;65.33;96675.65;108729;1272;22570;-79